Time;durP1;ratioP1;P1;durP2;ratioP2;P2;SDS_P1;SDS_P2;PMS_P1;PMS_P2;Temp;Humidity;BMP_temperature;BMP_pressure;BME280_temperature;BME280_humidity;BME280_pressure;Samples;Min_cycle;Max_cycle;Signal;HPM_P1;HPM_P2
2022/02/09 00:01:06;;;;;;;4.55;2.47;;;;;;;9.31;74.40;101571.00;5022607;28;20074;-73
2022/02/09 00:03:32;;;;;;;5.32;2.70;;;;;;;9.23;74.72;101570.00;5021485;28;20552;-73
2022/02/09 00:06:02;;;;;;;6.07;2.60;;;;;;;9.28;74.14;101578.84;5024646;28;20037;-73
2022/02/09 00:08:27;;;;;;;8.40;2.95;;;;;;;9.24;74.17;101587.56;5008477;28;20033;-72
2022/02/09 00:11:02;;;;;;;7.13;2.90;;;;;;;9.25;74.47;101581.41;5020565;28;20095;-73
2022/02/09 00:13:49;;;;;;;5.13;2.55;;;;;;;9.26;74.43;101589.34;5002540;28;20045;-72
2022/02/09 00:22:01;;;;;;;5.80;2.88;;;;;;;9.25;74.58;101599.84;5003194;28;20579;-73
2022/02/09 00:27:38;;;;;;;5.95;3.00;;;;;;;9.26;74.17;101597.25;5022827;28;20037;-73
2022/02/09 00:30:28;;;;;;;6.43;2.90;;;;;;;9.28;74.61;101594.66;5022602;28;20033;-73
2022/02/09 00:35:55;;;;;;;8.43;3.80;;;;;;;9.22;74.70;101595.41;5022045;28;20046;-73
2022/02/09 00:41:28;;;;;;;6.90;3.63;;;;;;;9.19;75.12;101584.84;5022627;28;20114;-73
2022/02/09 01:38:41;;;;;;;6.70;4.57;;;;;;;8.93;77.76;101593.22;5023781;28;20088;-73
2022/02/09 01:55:26;;;;;;;6.10;3.30;;;;;;;8.94;77.46;101584.44;5022269;28;20041;-72
2022/02/09 01:57:18;;;;;;;5.80;3.55;;;;;;;8.84;77.53;101590.41;5025364;28;20047;-73
2022/02/09 01:59:46;;;;;;;5.38;3.00;;;;;;;8.84;76.85;101589.53;5029489;28;20049;-73
2022/02/09 02:02:12;;;;;;;5.28;3.20;;;;;;;8.82;76.86;101578.06;5026273;28;20046;-73
2022/02/09 02:04:39;;;;;;;6.15;3.60;;;;;;;8.76;77.22;101573.59;5021950;28;20375;-73
2022/02/09 02:07:11;;;;;;;5.57;2.83;;;;;;;8.75;77.26;101571.78;5006619;28;20043;-73
2022/02/09 02:09:37;;;;;;;4.40;2.97;;;;;;;8.70;77.26;101574.38;5024954;28;20512;-73
2022/02/09 02:12:11;;;;;;;6.07;3.00;;;;;;;8.69;77.09;101572.56;5023759;28;20069;-74
2022/02/09 02:14:43;;;;;;;5.53;3.42;;;;;;;8.74;76.78;101585.81;5023069;28;20037;-74
2022/02/09 02:17:17;;;;;;;4.88;3.30;;;;;;;8.72;77.39;101574.38;5025130;28;20505;-73
2022/02/09 02:19:55;;;;;;;7.38;3.63;;;;;;;8.72;77.84;101577.91;5012756;28;20245;-73
2022/02/09 02:41:28;;;;;;;7.97;3.78;;;;;;;8.75;77.33;101588.50;5024753;28;20072;-73
2022/02/09 02:46:20;;;;;;;6.45;3.70;;;;;;;8.82;77.01;101576.31;5021146;28;20045;-73
2022/02/09 03:10:46;;;;;;;6.25;3.47;;;;;;;8.87;76.07;101574.66;5026844;28;20045;-74
2022/02/09 03:13:11;;;;;;;6.05;3.13;;;;;;;8.83;76.42;101566.66;5023710;28;20505;-74
2022/02/09 03:15:43;;;;;;;5.25;2.88;;;;;;;8.82;76.25;101563.16;5020863;28;20080;-74
2022/02/09 03:21:00;;;;;;;4.38;2.60;;;;;;;8.80;75.83;101570.13;5023565;28;20047;-74
2022/02/09 03:23:43;;;;;;;5.50;2.83;;;;;;;8.72;76.01;101571.75;5012788;28;20030;-73
2022/02/09 03:42:22;;;;;;;3.85;2.40;;;;;;;8.78;75.68;101580.66;5020612;28;20452;-73
2022/02/09 03:47:59;;;;;;;4.80;3.53;;;;;;;8.63;76.12;101574.22;5024113;28;20505;-74
2022/02/09 03:50:36;;;;;;;5.18;3.75;;;;;;;8.57;76.86;101567.09;5023321;28;20037;-74
2022/02/09 03:53:18;;;;;;;4.95;3.42;;;;;;;8.57;76.79;101577.63;5006528;28;20037;-74
2022/02/09 03:58:27;;;;;;;5.50;3.33;;;;;;;8.66;76.63;101569.91;5023120;28;20029;-73
2022/02/09 04:00:53;;;;;;;5.32;3.40;;;;;;;8.68;76.49;101583.09;5020870;28;20083;-73
2022/02/09 04:03:23;;;;;;;4.82;3.40;;;;;;;8.68;75.92;101576.09;5021087;28;20069;-73
2022/02/09 04:05:49;;;;;;;5.00;3.20;;;;;;;8.65;76.21;101578.66;5022707;28;20118;-74
2022/02/09 04:08:18;;;;;;;8.10;4.40;;;;;;;8.71;76.41;101570.88;5024709;28;20456;-74
2022/02/09 04:11:05;;;;;;;5.95;3.83;;;;;;;8.71;76.42;101568.22;5025081;28;20037;-73
2022/02/09 04:16:30;;;;;;;5.22;3.03;;;;;;;8.71;76.71;101573.50;5025675;28;20117;-74
2022/02/09 04:38:05;;;;;;;4.93;3.42;;;;;;;8.80;75.81;101569.25;5026069;28;20120;-73
2022/02/09 04:41:16;;;;;;;5.10;3.40;;;;;;;8.73;76.14;101571.78;5020922;28;20116;-74
2022/02/09 04:54:22;;;;;;;6.05;4.38;;;;;;;8.80;76.28;101562.25;5013925;28;20056;-74
2022/02/09 04:56:55;;;;;;;6.50;4.32;;;;;;;8.77;76.33;101575.34;5021804;28;20033;-73
2022/02/09 04:59:37;;;;;;;6.35;3.78;;;;;;;8.75;75.79;101563.91;5008216;28;20065;-73
2022/02/09 05:02:38;;;;;;;4.88;3.60;;;;;;;8.78;75.99;101556.97;5024067;28;20048;-73
2022/02/09 05:17:55;;;;;;;5.32;3.60;;;;;;;8.88;75.85;101554.47;5020687;28;20549;-74
2022/02/09 05:19:53;;;;;;;5.82;3.58;;;;;;;8.89;75.66;101556.25;5026183;28;20327;-73
2022/02/09 05:27:02;;;;;;;4.18;3.00;;;;;;;8.86;75.64;101545.69;5019957;28;20111;-74
2022/02/09 05:29:28;;;;;;;7.05;3.70;;;;;;;8.87;75.75;101545.69;5018888;28;20081;-73
2022/02/09 05:31:53;;;;;;;5.38;3.35;;;;;;;8.91;75.41;101549.28;5025249;28;20508;-73
2022/02/09 05:34:19;;;;;;;5.18;3.25;;;;;;;8.94;75.52;101542.31;5023641;28;20030;-73
2022/02/09 05:36:45;;;;;;;4.18;3.00;;;;;;;8.93;75.09;101544.91;5023550;28;20520;-74
2022/02/09 05:39:11;;;;;;;5.72;3.58;;;;;;;8.90;75.66;101548.38;5025650;28;20079;-73
2022/02/09 05:41:42;;;;;;;6.20;3.42;;;;;;;8.92;75.32;101551.94;5028537;28;20044;-74
2022/02/09 05:44:09;;;;;;;4.22;2.80;;;;;;;8.93;75.20;101555.44;5013285;28;20112;-74
2022/02/09 05:47:23;;;;;;;6.07;3.33;;;;;;;8.96;75.64;101563.38;5028025;28;20076;-74
2022/02/09 05:49:49;;;;;;;4.90;3.22;;;;;;;8.94;75.06;101551.97;5011368;28;20040;-74
2022/02/09 05:52:20;;;;;;;5.60;3.03;;;;;;;8.86;75.66;101562.38;5015388;28;20045;-74
2022/02/09 05:59:44;;;;;;;6.45;4.40;;;;;;;8.87;75.00;101555.34;5022548;28;20041;-74
2022/02/09 06:02:10;;;;;;;4.70;3.42;;;;;;;8.92;74.80;101564.22;5028104;28;20030;-74
2022/02/09 06:04:38;;;;;;;5.13;3.00;;;;;;;8.95;74.97;101565.13;5008358;28;20046;-74
2022/02/09 06:07:04;;;;;;;5.68;3.50;;;;;;;8.96;74.72;101555.47;5023945;28;20053;-74
2022/02/09 06:09:29;;;;;;;5.30;3.72;;;;;;;8.93;74.81;101556.34;5009964;28;20044;-74
2022/02/09 06:12:11;;;;;;;6.25;4.03;;;;;;;8.93;75.16;101547.53;5029123;28;20037;-74
2022/02/09 06:19:53;;;;;;;5.38;3.35;;;;;;;9.02;74.43;101541.56;5024368;28;20497;-74
2022/02/09 06:22:18;;;;;;;4.72;3.03;;;;;;;9.03;74.38;101544.19;5024014;28;20120;-74
2022/02/09 06:24:43;;;;;;;4.28;2.67;;;;;;;9.04;74.73;101547.72;5021636;28;20080;-74
2022/02/09 06:27:10;;;;;;;5.20;3.28;;;;;;;9.03;74.81;101543.31;5024717;28;20038;-73
2022/02/09 06:29:35;;;;;;;4.82;2.80;;;;;;;8.95;74.22;101551.09;5024821;28;20516;-74
2022/02/09 06:32:08;;;;;;;6.47;3.13;;;;;;;8.97;74.46;101552.00;5023588;28;20041;-74
2022/02/09 06:34:34;;;;;;;4.45;3.00;;;;;;;9.03;74.19;101540.69;5021449;28;20401;-74
2022/02/09 06:37:10;;;;;;;6.10;4.05;;;;;;;9.05;75.01;101545.13;5023746;28;20047;-74
2022/02/09 06:39:35;;;;;;;8.90;4.70;;;;;;;9.08;75.16;101546.91;5024579;28;20037;-74
2022/02/09 06:42:00;;;;;;;5.78;3.30;;;;;;;9.14;74.53;101547.00;5024420;28;20068;-74
2022/02/09 06:44:27;;;;;;;7.03;3.75;;;;;;;9.16;73.84;101553.19;5025043;28;20103;-74
2022/02/09 06:46:53;;;;;;;4.70;3.00;;;;;;;9.12;73.88;101551.38;5022612;28;20025;-74
2022/02/09 06:49:18;;;;;;;7.85;3.67;;;;;;;9.13;74.31;101538.22;5024181;28;20124;-74
2022/02/09 06:51:46;;;;;;;6.65;4.03;;;;;;;9.14;74.53;101540.03;5024335;28;20096;-74
2022/02/09 06:54:15;;;;;;;4.00;2.70;;;;;;;9.18;73.47;101535.66;5029520;28;20120;-74
2022/02/09 06:59:15;;;;;;;4.35;2.47;;;;;;;9.11;73.62;101534.66;5028427;28;20160;-74
2022/02/09 07:01:41;;;;;;;7.30;3.03;;;;;;;9.14;73.18;101529.47;5025545;28;20048;-74
2022/02/09 07:04:06;;;;;;;3.72;2.20;;;;;;;9.15;72.58;101525.97;5022976;28;20395;-74
2022/02/09 07:06:32;;;;;;;4.53;2.65;;;;;;;9.13;72.85;101527.69;5007971;28;20034;-74
2022/02/09 07:08:57;;;;;;;6.53;3.08;;;;;;;9.14;73.00;101526.84;5025433;28;20030;-74
2022/02/09 07:11:23;;;;;;;4.90;2.47;;;;;;;9.17;73.03;101524.25;5022078;28;20520;-74
2022/02/09 07:13:50;;;;;;;5.65;3.30;;;;;;;9.14;73.41;101528.56;5004457;28;20053;-73
2022/02/09 07:16:17;;;;;;;7.15;4.05;;;;;;;9.20;73.73;101537.47;5023555;28;20041;-74
2022/02/09 07:18:45;;;;;;;11.50;4.75;;;;;;;9.28;73.36;101527.06;5020835;28;20046;-74
2022/02/09 07:21:15;;;;;;;5.53;3.10;;;;;;;9.26;72.64;101512.97;5004943;28;20041;-74
2022/02/09 07:23:45;;;;;;;5.10;3.25;;;;;;;9.20;72.96;101513.75;5023547;28;20556;-74
2022/02/09 07:28:36;;;;;;;5.93;2.72;;;;;;;9.20;72.50;101516.41;5023289;28;20049;-74
2022/02/09 07:31:03;;;;;;;5.07;2.50;;;;;;;9.11;73.20;101518.88;5022753;28;20586;-74
2022/02/09 07:33:29;;;;;;;4.53;2.50;;;;;;;9.08;72.98;101518.84;5020602;28;20048;-75
2022/02/09 07:35:55;;;;;;;5.10;2.47;;;;;;;9.07;73.17;101522.34;5021854;28;20033;-74
2022/02/09 07:38:20;;;;;;;5.82;2.67;;;;;;;9.08;73.16;101521.47;5021452;28;20120;-74
2022/02/09 07:40:46;;;;;;;4.82;2.72;;;;;;;9.11;73.27;101505.72;5004135;28;20033;-73
2022/02/09 07:43:22;;;;;;;3.90;2.17;;;;;;;9.20;72.44;101516.41;5023087;28;20501;-74
2022/02/09 07:48:40;;;;;;;4.45;2.30;;;;;;;9.14;72.86;101516.31;5020305;28;20042;-74
2022/02/09 07:53:46;;;;;;;3.50;1.90;;;;;;;9.21;72.26;101507.63;5022715;28;20573;-74
2022/02/09 07:56:11;;;;;;;5.47;2.22;;;;;;;9.25;72.43;101500.66;5027855;28;20040;-73
2022/02/09 07:58:37;;;;;;;3.83;2.10;;;;;;;9.25;72.21;101510.28;5012522;28;20120;-74
2022/02/09 08:01:02;;;;;;;4.95;2.40;;;;;;;9.24;72.18;101509.41;5020513;28;20128;-73
2022/02/09 08:03:28;;;;;;;3.65;2.00;;;;;;;9.33;72.18;101513.97;5004362;28;20087;-74
2022/02/09 08:05:53;;;;;;;4.28;2.22;;;;;;;9.32;71.94;101509.53;5017820;28;20041;-74
2022/02/09 08:08:19;;;;;;;4.30;2.15;;;;;;;9.33;71.99;101508.69;5024260;28;20041;-74
2022/02/09 08:10:53;;;;;;;4.20;2.13;;;;;;;9.37;71.16;101499.94;5005057;28;20116;-74
2022/02/09 08:23:01;;;;;;;4.30;1.95;;;;;;;9.48;70.46;101490.44;5015841;28;20133;-74
2022/02/09 08:24:23;;;;;;;3.70;1.65;;;;;;;9.48;70.89;101500.97;5023214;28;20037;-74
2022/02/09 08:26:55;;;;;;;3.85;1.88;;;;;;;9.49;70.45;101508.03;5022671;28;20037;-74
2022/02/09 08:29:30;;;;;;;3.60;1.75;;;;;;;9.51;70.41;101514.22;5023076;28;20433;-74
2022/02/09 08:34:38;;;;;;;2.75;1.67;;;;;;;9.54;69.86;101508.09;5002958;28;20030;-74
2022/02/09 08:37:05;;;;;;;4.72;1.50;;;;;;;9.55;70.00;101508.09;5020993;28;20056;-74
2022/02/09 08:39:31;;;;;;;3.13;1.63;;;;;;;9.47;70.17;101515.03;5026474;28;20038;-74
2022/02/09 08:41:57;;;;;;;3.30;1.55;;;;;;;9.51;69.61;101513.31;5023285;28;20549;-74
2022/02/09 08:44:24;;;;;;;4.43;1.95;;;;;;;9.50;69.17;101512.44;5021784;28;20061;-74
2022/02/09 08:46:50;;;;;;;3.65;1.65;;;;;;;9.50;69.02;101516.81;5022234;28;20044;-73
2022/02/09 08:49:15;;;;;;;3.33;1.40;;;;;;;9.45;69.68;101514.09;5019527;28;20042;-74
2022/02/09 08:51:43;;;;;;;2.88;1.60;;;;;;;9.51;69.29;101519.50;5018654;28;20034;-74
2022/02/09 08:54:09;;;;;;;7.45;1.70;;;;;;;9.51;69.60;101519.50;5022812;28;20517;-74
2022/02/09 08:56:38;;;;;;;3.17;1.50;;;;;;;9.62;68.69;101517.88;5027586;28;20041;-74
2022/02/09 08:59:04;;;;;;;3.35;1.60;;;;;;;9.68;68.54;101506.53;5026859;28;20048;-74
2022/02/09 09:01:39;;;;;;;3.10;1.70;;;;;;;9.54;69.06;101503.72;5025634;28;20073;-74
2022/02/09 09:04:18;;;;;;;5.28;2.30;;;;;;;9.60;68.80;101509.06;5022244;28;20044;-74
2022/02/09 09:06:50;;;;;;;3.42;1.75;;;;;;;9.54;68.67;101498.44;5025585;28;20041;-74
2022/02/09 09:09:27;;;;;;;3.00;1.60;;;;;;;9.53;68.93;101507.19;5016755;28;20124;-74
2022/02/09 09:31:18;;;;;;;2.83;1.60;;;;;;;9.63;67.73;101482.72;5026514;28;20490;-74
2022/02/09 09:58:04;;;;;;;4.00;2.05;;;;;;;9.81;66.02;101466.25;5016307;28;20041;-74
2022/02/09 10:01:19;;;;;;;6.20;1.42;;;;;;;10.05;65.79;101475.31;5022440;28;20084;-74
2022/02/09 10:14:13;;;;;;;3.10;1.80;;;;;;;10.20;65.19;101472.84;5028780;28;20044;-74
2022/02/09 10:31:59;;;;;;;11.20;2.38;;;;;;;10.17;64.60;101459.63;5027474;28;20501;-74
2022/02/09 10:34:26;;;;;;;4.05;1.77;;;;;;;10.23;64.15;101448.25;5024709;28;20042;-74
2022/02/09 10:37:05;;;;;;;3.63;1.65;;;;;;;10.23;63.69;101453.53;5022409;28;20045;-74
2022/02/09 10:40:10;;;;;;;2.28;1.40;;;;;;;10.26;64.00;101456.19;5005458;28;20072;-74
2022/02/09 10:42:49;;;;;;;3.55;1.73;;;;;;;10.23;64.52;101453.53;5023522;28;20497;-74
2022/02/09 10:45:34;;;;;;;2.58;1.25;;;;;;;10.32;64.19;101453.66;5024383;28;20049;-74
2022/02/09 10:48:03;;;;;;;3.88;1.33;;;;;;;10.28;64.30;101465.06;5011310;28;20065;-74
2022/02/09 10:50:39;;;;;;;3.28;1.40;;;;;;;10.26;63.98;101448.28;5022413;28;20049;-74
2022/02/09 10:53:10;;;;;;;3.20;1.42;;;;;;;10.28;64.50;101451.88;5025157;28;20482;-74
2022/02/09 10:55:38;;;;;;;3.20;1.60;;;;;;;10.31;63.86;101446.63;5023533;28;20038;-74
2022/02/09 10:58:10;;;;;;;5.07;2.30;;;;;;;10.37;63.98;101448.41;5024915;28;20354;-74
2022/02/09 11:00:37;;;;;;;3.15;1.73;;;;;;;10.33;64.30;101447.50;5026339;28;20486;-74
2022/02/09 11:03:03;;;;;;;3.63;2.00;;;;;;;10.27;64.37;101442.13;5024005;28;20033;-74
2022/02/09 11:05:28;;;;;;;4.28;1.80;;;;;;;10.23;64.48;101437.72;5025712;28;20045;-74
2022/02/09 11:07:54;;;;;;;4.63;1.90;;;;;;;10.33;64.21;101438.72;5023004;28;20045;-76
2022/02/09 11:10:21;;;;;;;5.38;2.70;;;;;;;10.36;64.38;101446.66;5028093;28;20041;-73
2022/02/09 11:12:47;;;;;;;3.97;2.20;;;;;;;10.37;64.09;101437.88;5028120;28;20104;-73
2022/02/09 11:15:18;;;;;;;4.68;2.00;;;;;;;10.35;63.72;101448.41;5025579;28;20124;-75
2022/02/09 11:17:47;;;;;;;4.68;2.08;;;;;;;10.33;64.10;101439.59;5030144;28;20447;-74
2022/02/09 11:20:28;;;;;;;3.85;1.67;;;;;;;10.21;63.82;101434.16;5029115;28;20095;-74
2022/02/09 11:22:53;;;;;;;4.03;2.08;;;;;;;10.26;63.88;101432.44;5024473;28;20048;-74
2022/02/09 11:25:31;;;;;;;4.03;2.47;;;;;;;10.30;64.44;101439.56;5018697;28;20034;-74
2022/02/09 11:28:15;;;;;;;4.97;3.10;;;;;;;10.38;63.51;101431.75;5024564;28;20104;-75
2022/02/09 11:30:46;;;;;;;4.25;2.60;;;;;;;10.31;64.45;101422.88;5011396;28;20043;-73
2022/02/09 11:33:23;;;;;;;4.57;2.78;;;;;;;10.43;63.93;101420.34;5025365;28;20042;-74
2022/02/09 11:39:03;;;;;;;3.92;2.03;;;;;;;10.60;62.72;101417.81;5026945;28;20032;-74
2022/02/09 11:41:37;;;;;;;4.03;2.45;;;;;;;10.64;63.04;101421.41;5021328;28;20041;-74
2022/02/09 11:44:14;;;;;;;4.45;2.50;;;;;;;10.72;63.33;101417.06;5027548;28;20042;-75
2022/02/09 11:46:58;;;;;;;3.17;1.98;;;;;;;10.65;62.34;101412.59;5025045;28;20117;-74
2022/02/09 11:52:32;;;;;;;4.25;2.55;;;;;;;10.60;62.20;101414.31;5032299;28;20064;-74
2022/02/09 11:55:27;;;;;;;4.68;2.10;;;;;;;10.72;62.51;101409.13;5030134;28;20048;-75
2022/02/09 12:11:36;;;;;;;3.47;1.77;;;;;;;10.68;62.33;101405.56;5024106;28;20099;-73
2022/02/09 12:14:16;;;;;;;3.20;1.67;;;;;;;10.69;62.46;101406.47;5021448;28;20128;-74
2022/02/09 12:17:24;;;;;;;3.05;1.50;;;;;;;10.74;62.69;101410.91;5021366;28;20049;-74
2022/02/09 12:19:52;;;;;;;3.50;1.80;;;;;;;10.67;62.05;101393.25;5024236;28;20041;-73
2022/02/09 12:22:19;;;;;;;4.80;1.77;;;;;;;10.71;62.45;101399.44;5003562;28;20049;-74
2022/02/09 12:24:45;;;;;;;5.80;2.20;;;;;;;10.65;62.89;101395.00;5020010;28;20060;-73
2022/02/09 12:27:13;;;;;;;3.20;1.77;;;;;;;10.75;62.81;101388.03;5022836;28;20044;-74
2022/02/09 12:29:44;;;;;;;4.00;1.90;;;;;;;10.83;62.23;101396.88;5027839;28;20029;-73
2022/02/09 12:32:15;;;;;;;4.85;2.78;;;;;;;10.65;62.44;101388.84;5023544;28;20069;-73
2022/02/09 12:34:45;;;;;;;4.13;1.60;;;;;;;10.67;62.62;101393.25;5006806;28;20042;-74
2022/02/09 12:37:15;;;;;;;3.40;1.88;;;;;;;10.58;63.00;101393.16;5018966;28;20084;-73
2022/02/09 12:39:52;;;;;;;3.42;1.88;;;;;;;10.60;62.89;101391.44;5002900;28;20030;-74
2022/02/09 12:42:20;;;;;;;3.60;2.10;;;;;;;10.58;62.92;101381.72;5022817;28;20068;-73
2022/02/09 12:45:06;;;;;;;4.38;2.08;;;;;;;10.57;62.28;101377.34;5018707;28;20045;-73
2022/02/09 12:47:37;;;;;;;5.38;1.95;;;;;;;10.53;62.88;101374.69;5022129;28;20053;-74
2022/02/09 12:50:07;;;;;;;4.07;2.10;;;;;;;10.56;62.64;101378.19;5022317;28;20064;-74
2022/02/09 12:52:35;;;;;;;4.07;2.10;;;;;;;10.57;62.58;101374.69;5021227;28;20049;-74
2022/02/09 12:55:07;;;;;;;4.47;2.08;;;;;;;10.57;62.40;101379.97;5019054;28;20040;-74
2022/02/09 12:57:38;;;;;;;3.45;1.75;;;;;;;10.48;62.18;101370.25;5021445;28;20033;-74
2022/02/09 13:00:20;;;;;;;4.07;2.10;;;;;;;10.49;62.92;101367.59;5022529;28;20045;-74
2022/02/09 13:02:46;;;;;;;4.63;2.25;;;;;;;10.55;62.78;101365.88;5022549;28;20046;-74
2022/02/09 13:05:12;;;;;;;3.90;2.28;;;;;;;10.62;62.83;101365.94;5021873;28;20064;-74
2022/02/09 13:07:37;;;;;;;5.43;3.10;;;;;;;10.66;63.03;101365.09;5019096;28;20045;-74
2022/02/09 13:10:03;;;;;;;4.80;2.38;;;;;;;10.62;62.70;101363.28;5021519;28;20042;-74
2022/02/09 13:12:30;;;;;;;4.70;2.03;;;;;;;10.63;62.12;101369.44;5021084;28;20049;-74
2022/02/09 13:15:09;;;;;;;3.40;1.92;;;;;;;10.60;62.15;101358.88;5019369;28;20037;-73
2022/02/09 13:23:27;;;;;;;3.47;2.00;;;;;;;10.65;62.66;101352.75;5008287;28;20091;-74
2022/02/09 13:51:54;;;;;;;5.50;2.10;;;;;;;10.64;62.85;101363.31;5024844;28;20043;-73
2022/02/09 14:06:52;;;;;;;3.65;2.67;;;;;;;10.69;62.80;101345.75;5022556;28;20044;-74
2022/02/09 14:11:44;;;;;;;4.18;2.30;;;;;;;10.55;63.85;101345.63;5022680;28;20033;-74
2022/02/09 14:23:32;;;;;;;4.50;2.80;;;;;;;10.43;63.66;101356.13;5024007;28;20052;-73
2022/02/09 14:50:27;;;;;;;4.57;2.90;;;;;;;10.34;65.34;101366.59;5022455;28;20113;-73
2022/02/09 14:54:47;;;;;;;4.13;2.45;;;;;;;10.30;65.50;101370.97;5022453;28;20401;-73
2022/02/09 14:57:18;;;;;;;7.53;2.90;;;;;;;10.27;65.22;101360.34;5024421;28;20132;-72
2022/02/09 15:02:17;;;;;;;5.35;2.33;;;;;;;10.23;65.54;101356.81;5028567;28;20072;-73
2022/02/09 15:07:38;;;;;;;7.07;3.10;;;;;;;10.36;65.26;101357.81;5020044;28;20580;-73
2022/02/09 15:10:10;;;;;;;5.25;2.67;;;;;;;10.35;65.08;101353.44;5027582;28;20041;-73
2022/02/09 15:15:30;;;;;;;4.53;2.67;;;;;;;10.23;65.59;101359.44;5026913;28;20096;-72
2022/02/09 15:18:35;;;;;;;4.82;2.70;;;;;;;10.26;65.40;101350.66;5027357;28;20044;-73
2022/02/09 15:21:18;;;;;;;8.27;2.97;;;;;;;10.21;65.70;101350.63;5027263;28;20057;-73
2022/02/09 15:23:43;;;;;;;5.82;3.17;;;;;;;10.24;65.70;101348.03;5025437;28;20026;-73
2022/02/09 15:26:09;;;;;;;5.78;3.70;;;;;;;10.23;65.72;101343.63;5022977;28;20052;-73
2022/02/09 15:28:36;;;;;;;11.93;6.20;;;;;;;10.23;65.63;101342.72;5024448;28;20025;-74
2022/02/09 15:31:10;;;;;;;10.63;6.07;;;;;;;10.20;66.04;101350.63;5023112;28;20052;-74
2022/02/09 15:33:42;;;;;;;9.15;5.25;;;;;;;10.28;65.85;101356.88;5023584;28;20068;-73
2022/02/09 15:36:11;;;;;;;8.13;5.22;;;;;;;10.26;65.98;101348.03;5022940;28;20044;-73
2022/02/09 15:38:46;;;;;;;6.63;4.30;;;;;;;10.22;65.96;101348.91;5020289;28;20042;-73
2022/02/09 15:41:43;;;;;;;5.07;3.58;;;;;;;10.26;65.71;101350.66;5021774;28;20033;-73
2022/02/09 15:56:15;;;;;;;6.07;3.70;;;;;;;10.21;65.72;101341.84;5021828;28;20033;-74
2022/02/09 15:58:19;;;;;;;4.95;3.20;;;;;;;10.13;66.75;101357.59;4990424;28;20049;-73
2022/02/09 16:17:23;;;;;;;5.63;2.85;;;;;;;10.10;66.97;101354.94;5023111;28;20065;-73
2022/02/09 16:22:45;;;;;;;4.85;2.90;;;;;;;10.03;67.58;101358.38;5020289;28;20067;-73
2022/02/09 16:34:02;;;;;;;4.65;2.85;;;;;;;9.95;67.46;101360.94;5020442;28;20489;-74
2022/02/09 16:36:53;;;;;;;6.20;3.25;;;;;;;9.89;67.51;101368.78;5021080;28;20046;-74
2022/02/09 16:44:37;;;;;;;5.15;3.40;;;;;;;9.91;68.16;101367.06;5022755;28;20105;-74
2022/02/09 16:47:13;;;;;;;4.72;3.10;;;;;;;9.86;68.61;101374.03;5020199;28;20517;-74
2022/02/09 16:49:51;;;;;;;5.97;3.60;;;;;;;9.83;68.17;101374.03;5019359;28;20528;-74
2022/02/09 16:52:23;;;;;;;4.55;2.75;;;;;;;9.91;68.02;101371.47;5029436;28;20107;-74
2022/02/09 16:55:10;;;;;;;5.55;3.10;;;;;;;9.95;67.80;101374.13;5026562;28;20410;-74
2022/02/09 17:08:32;;;;;;;4.97;3.33;;;;;;;9.99;67.75;101367.16;5019745;28;20405;-74
2022/02/09 17:19:02;;;;;;;5.95;3.45;;;;;;;9.96;68.14;101381.19;5024951;28;20037;-74
2022/02/09 17:21:32;;;;;;;5.18;2.78;;;;;;;10.05;68.12;101381.25;5013167;28;20033;-74
2022/02/09 17:24:03;;;;;;;5.72;2.97;;;;;;;10.01;67.97;101370.69;5019217;28;20037;-74
2022/02/09 17:26:30;;;;;;;5.80;2.83;;;;;;;10.01;68.14;101370.69;5009875;28;20042;-73
2022/02/09 17:29:01;;;;;;;5.10;2.60;;;;;;;9.99;67.87;101375.94;5025864;28;20444;-73
2022/02/09 17:34:18;;;;;;;4.97;2.90;;;;;;;10.08;67.73;101369.84;5025743;28;20049;-73
2022/02/09 17:53:19;;;;;;;3.83;2.38;;;;;;;10.05;67.94;101372.47;5025318;28;20045;-73
2022/02/09 17:55:55;;;;;;;4.05;2.38;;;;;;;10.02;67.88;101381.22;5022498;28;20072;-72
2022/02/09 17:58:27;;;;;;;8.10;4.57;;;;;;;10.03;68.42;101382.09;5029369;28;20572;-75
2022/02/09 18:00:54;;;;;;;5.78;3.70;;;;;;;10.10;68.07;101374.28;5023132;28;20474;-72
2022/02/09 18:03:19;;;;;;;6.63;3.28;;;;;;;10.12;68.06;101387.50;5023949;28;20029;-72
2022/02/09 18:05:49;;;;;;;4.05;2.42;;;;;;;10.10;67.62;101384.81;5030709;28;20382;-72
2022/02/09 18:08:22;;;;;;;5.13;2.30;;;;;;;10.12;67.79;101383.97;5024956;28;20037;-72
2022/02/09 18:11:00;;;;;;;6.22;2.53;;;;;;;10.14;67.66;101384.84;5024301;28;20034;-72
2022/02/09 18:29:49;;;;;;;5.00;2.33;;;;;;;10.04;67.60;101386.53;5025725;28;20064;-73
2022/02/09 18:38:09;;;;;;;3.50;2.20;;;;;;;10.03;67.31;101367.19;5011930;28;20049;-72
2022/02/09 18:43:28;;;;;;;5.22;2.60;;;;;;;10.05;67.24;101367.19;5009560;28;20045;-73
2022/02/09 18:46:02;;;;;;;5.28;2.35;;;;;;;10.05;67.57;101372.47;5021570;28;20056;-73
2022/02/09 18:56:54;;;;;;;4.55;2.17;;;;;;;10.03;67.52;101371.56;5022404;28;20038;-73
2022/02/09 18:59:33;;;;;;;3.85;2.13;;;;;;;10.05;67.40;101364.56;5024786;28;20033;-74
2022/02/09 19:04:47;;;;;;;5.38;2.10;;;;;;;10.04;68.10;101370.72;5024241;28;20033;-73
2022/02/09 19:07:37;;;;;;;4.10;2.40;;;;;;;10.05;68.30;101370.72;5024374;28;20037;-73
2022/02/09 19:15:49;;;;;;;7.10;3.83;;;;;;;9.93;68.16;101367.97;5020884;28;20044;-73
2022/02/09 19:26:46;;;;;;;5.57;2.63;;;;;;;9.85;68.66;101361.72;5022097;28;20117;-73
2022/02/09 19:32:22;;;;;;;4.13;2.38;;;;;;;9.81;69.16;101357.28;5023833;28;20048;-74
2022/02/09 19:44:03;;;;;;;4.72;2.63;;;;;;;9.73;69.10;101366.88;5023489;28;20051;-74
2022/02/09 19:48:33;;;;;;;7.38;3.35;;;;;;;9.78;69.31;101367.81;5022770;28;20116;-74
2022/02/09 19:51:30;;;;;;;6.82;3.53;;;;;;;9.73;69.97;101367.75;5021163;28;20391;-74
2022/02/09 19:54:10;;;;;;;5.43;3.38;;;;;;;9.74;69.86;101366.88;5021613;28;20437;-74
2022/02/09 19:56:37;;;;;;;5.63;3.40;;;;;;;9.73;69.57;101372.16;5021189;28;20041;-73
2022/02/09 19:59:13;;;;;;;6.32;3.60;;;;;;;9.72;69.90;101376.53;5023026;28;20520;-74
2022/02/09 20:01:39;;;;;;;5.68;3.28;;;;;;;9.67;69.51;101372.97;5025110;28;20041;-74
2022/02/09 20:04:07;;;;;;;7.05;3.60;;;;;;;9.65;69.81;101375.56;5013586;28;20025;-74
2022/02/09 20:06:33;;;;;;;4.75;2.78;;;;;;;9.62;70.39;101377.31;5020980;28;20025;-74
2022/02/09 20:08:58;;;;;;;4.82;2.75;;;;;;;9.58;70.40;101379.00;5022803;28;20464;-74
2022/02/09 20:11:24;;;;;;;5.32;3.03;;;;;;;9.63;70.13;101376.44;5024552;28;20041;-74
2022/02/09 20:13:53;;;;;;;4.20;2.67;;;;;;;9.62;70.35;101372.91;5023872;28;20121;-74
2022/02/09 20:16:22;;;;;;;4.55;2.95;;;;;;;9.64;70.13;101371.19;5020679;28;20482;-74
2022/02/09 20:18:52;;;;;;;6.18;3.72;;;;;;;9.64;70.23;101371.19;5023084;28;20037;-74
2022/02/09 20:21:20;;;;;;;6.10;3.53;;;;;;;9.64;70.11;101363.28;5021228;28;20042;-74
2022/02/09 20:23:46;;;;;;;7.03;3.90;;;;;;;9.63;70.88;101366.75;5009315;28;20387;-73
2022/02/09 20:26:13;;;;;;;7.88;4.50;;;;;;;9.65;70.96;101375.56;5022795;28;20037;-74
2022/02/09 20:28:43;;;;;;;4.57;2.90;;;;;;;9.68;70.81;101373.84;5023874;28;20044;-74
2022/02/09 20:31:13;;;;;;;4.82;2.85;;;;;;;9.71;70.59;101368.59;5003547;28;20037;-73
2022/02/09 20:33:44;;;;;;;4.90;3.17;;;;;;;9.67;69.99;101375.59;5022719;28;20041;-73
2022/02/09 20:36:12;;;;;;;4.40;2.60;;;;;;;9.62;70.68;101374.66;5021180;28;20045;-73
2022/02/09 20:38:39;;;;;;;9.40;3.50;;;;;;;9.61;70.54;101372.88;5019721;28;20038;-73
2022/02/09 20:41:08;;;;;;;7.22;3.65;;;;;;;9.63;70.49;101372.03;5022796;28;20036;-74
2022/02/09 20:43:40;;;;;;;4.75;3.03;;;;;;;9.55;70.55;101371.06;5020887;28;20482;-73
2022/02/09 20:46:07;;;;;;;6.13;3.42;;;;;;;9.58;70.64;101367.59;5019808;28;20042;-74
2022/02/09 20:48:33;;;;;;;6.07;3.20;;;;;;;9.54;71.21;101365.81;5022679;28;20514;-73
2022/02/09 20:51:03;;;;;;;5.97;2.97;;;;;;;9.59;70.63;101364.97;5009006;28;20049;-73
2022/02/09 20:53:29;;;;;;;6.82;4.15;;;;;;;9.59;70.90;101362.34;5023001;28;20087;-74
2022/02/09 20:55:56;;;;;;;7.65;4.93;;;;;;;9.55;71.44;101363.16;5019328;28;20137;-74
2022/02/09 20:58:22;;;;;;;9.05;5.30;;;;;;;9.54;71.37;101360.53;5023293;28;20112;-74
2022/02/09 21:00:58;;;;;;;15.20;7.22;;;;;;;9.58;71.65;101363.19;5021179;28;20128;-74
2022/02/09 21:16:39;;;;;;;6.65;3.25;;;;;;;9.47;71.29;101370.09;5025947;28;20413;-74
2022/02/09 21:22:13;;;;;;;14.40;5.32;;;;;;;9.40;71.51;101361.22;5025851;28;20064;-73
2022/02/09 21:28:05;;;;;;;6.85;4.03;;;;;;;9.41;71.20;101357.75;5027008;28;20045;-74